PWSweather.com
Personal Weather Stations
Station Observations
KMIEASTT1
Tawas Bay, East Tawas, MI 48730

Tawas BayEast Tawas, MI 48730

Lat: 44.28, Lon: -83.48

Elevation: 600

Station Type: Davis VantagePro

http://www.tawasbayweather.com

High Low Average
Temperature 34.0°F1.1°C 25.7°F-3.5°C 29.9°F-1.2°C
Dew Point 29.0°F-1.7°C 19.1°F-7.2°C 23.4°F-4.8°C
Winds 14.0 mph 22.5 kmh Calm Calm 4.0 mph WSW6.4 kmh WSW
Wind Gusts 18.0 mph29.0 kmh -- 7.0 mph11.3 kmh
Humidity 84% 67% 76%
Pressure 30.36 in1028.1 mb 30.21 in1023.0 mb -
Precipitation 0.00 in0.0 mm - -
Hour Temp Dew Point Humidity Winds Wind Gusts Pressure Precip Precip Rate Daily Precip Total
12:01 AM 29.3°F-1.5°C 21.1°F-6.1°C 71% 1.0 mph W1.6 kmh W 3.0 mph4.8 kmh 30.21 in1023.0 mb 0.00 in0.0 mm 0.00 in/hr0.0 mm/hr 0.00 in0.0 mm
12:15 AM 29.3°F-1.5°C 21.1°F-6.1°C 71% 4.0 mph NW6.4 kmh NW 6.0 mph9.7 kmh 30.22 in1023.4 mb 0.00 in0.0 mm 0.00 in/hr0.0 mm/hr 0.00 in0.0 mm
12:30 AM 29.3°F-1.5°C 21.1°F-6.1°C 71% 3.0 mph W4.8 kmh W 7.0 mph11.3 kmh 30.22 in1023.4 mb 0.00 in0.0 mm 0.00 in/hr0.0 mm/hr 0.00 in0.0 mm
12:45 AM 29.3°F-1.5°C 20.7°F-6.3°C 70% 5.0 mph NW8.0 kmh NW 7.0 mph11.3 kmh 30.22 in1023.4 mb 0.00 in0.0 mm 0.00 in/hr0.0 mm/hr 0.00 in0.0 mm
01:01 AM 29.2°F-1.6°C 20.3°F-6.5°C 69% 2.0 mph NW3.2 kmh NW 6.0 mph9.7 kmh 30.23 in1023.7 mb 0.00 in0.0 mm 0.00 in/hr0.0 mm/hr 0.00 in0.0 mm
01:15 AM 29.1°F-1.6°C 19.9°F-6.7°C 68% 3.0 mph WNW4.8 kmh WNW 6.0 mph9.7 kmh 30.23 in1023.7 mb 0.00 in0.0 mm 0.00 in/hr0.0 mm/hr 0.00 in0.0 mm
01:30 AM 29.0°F-1.7°C 19.8°F-6.8°C 68% 2.0 mph NW3.2 kmh NW 5.0 mph8.0 kmh 30.23 in1023.7 mb 0.00 in0.0 mm 0.00 in/hr0.0 mm/hr 0.00 in0.0 mm
01:45 AM 29.0°F-1.7°C 19.4°F-7.0°C 67% 3.0 mph NW4.8 kmh NW 6.0 mph9.7 kmh 30.23 in1023.7 mb 0.00 in0.0 mm 0.00 in/hr0.0 mm/hr 0.00 in0.0 mm
02:01 AM 29.0°F-1.7°C 19.4°F-7.0°C 67% 3.0 mph WNW4.8 kmh WNW 5.0 mph8.0 kmh 30.24 in1024.0 mb 0.00 in0.0 mm 0.00 in/hr0.0 mm/hr 0.00 in0.0 mm
02:15 AM 28.8°F-1.8°C 19.2°F-7.1°C 67% 2.0 mph WNW3.2 kmh WNW 9.0 mph14.5 kmh 30.24 in1024.0 mb 0.00 in0.0 mm 0.00 in/hr0.0 mm/hr 0.00 in0.0 mm
02:30 AM 28.4°F-2.0°C 19.2°F-7.1°C 68% 3.0 mph NW4.8 kmh NW 4.0 mph6.4 kmh 30.25 in1024.4 mb 0.00 in0.0 mm 0.00 in/hr0.0 mm/hr 0.00 in0.0 mm
02:45 AM 28.0°F-2.2°C 19.2°F-7.1°C 69% 2.0 mph NW3.2 kmh NW 5.0 mph8.0 kmh 30.25 in1024.4 mb 0.00 in0.0 mm 0.00 in/hr0.0 mm/hr 0.00 in0.0 mm
03:01 AM 27.6°F-2.4°C 19.4°F-7.0°C 71% 1.0 mph NW1.6 kmh NW 4.0 mph6.4 kmh 30.26 in1024.7 mb 0.00 in0.0 mm 0.00 in/hr0.0 mm/hr 0.00 in0.0 mm
03:15 AM 27.1°F-2.7°C 19.3°F-7.1°C 72% 1.0 mph WNW1.6 kmh WNW 3.0 mph4.8 kmh 30.27 in1025.1 mb 0.00 in0.0 mm 0.00 in/hr0.0 mm/hr 0.00 in0.0 mm
03:30 AM 26.9°F-2.8°C 19.1°F-7.2°C 72% 1.0 mph W1.6 kmh W 2.0 mph3.2 kmh 30.27 in1025.1 mb 0.00 in0.0 mm 0.00 in/hr0.0 mm/hr 0.00 in0.0 mm
03:45 AM 26.6°F-3.0°C 19.1°F-7.2°C 73% Calm Calm 1.0 mph1.6 kmh 30.28 in1025.4 mb 0.00 in0.0 mm 0.00 in/hr0.0 mm/hr 0.00 in0.0 mm
04:01 AM 26.1°F-3.3°C 19.6°F-6.9°C 76% Calm Calm 1.0 mph1.6 kmh 30.28 in1025.4 mb 0.00 in0.0 mm 0.00 in/hr0.0 mm/hr 0.00 in0.0 mm
04:15 AM 25.7°F-3.5°C 19.8°F-6.8°C 78% Calm Calm -- 30.28 in1025.4 mb 0.00 in0.0 mm 0.00 in/hr0.0 mm/hr 0.00 in0.0 mm
04:30 AM 25.7°F-3.5°C 20.4°F-6.4°C 80% Calm Calm 1.0 mph1.6 kmh 30.28 in1025.4 mb 0.00 in0.0 mm 0.00 in/hr0.0 mm/hr 0.00 in0.0 mm
04:45 AM 26.2°F-3.2°C 20.6°F-6.3°C 79% Calm Calm -- 30.29 in1025.7 mb 0.00 in0.0 mm 0.00 in/hr0.0 mm/hr 0.00 in0.0 mm
05:01 AM 27.0°F-2.8°C 21.4°F-5.9°C 79% Calm Calm -- 30.30 in1026.1 mb 0.00 in0.0 mm 0.00 in/hr0.0 mm/hr 0.00 in0.0 mm
05:15 AM 27.5°F-2.5°C 21.3°F-5.9°C 77% Calm Calm 1.0 mph1.6 kmh 30.30 in1026.1 mb 0.00 in0.0 mm 0.00 in/hr0.0 mm/hr 0.00 in0.0 mm
05:30 AM 27.8°F-2.3°C 21.5°F-5.8°C 77% Calm Calm 1.0 mph1.6 kmh 30.30 in1026.1 mb 0.00 in0.0 mm 0.00 in/hr0.0 mm/hr 0.00 in0.0 mm
05:45 AM 27.7°F-2.4°C 21.8°F-5.7°C 78% Calm Calm 1.0 mph1.6 kmh 30.31 in1026.4 mb 0.00 in0.0 mm 0.00 in/hr0.0 mm/hr 0.00 in0.0 mm
06:01 AM 28.2°F-2.1°C 21.9°F-5.6°C 77% Calm Calm -- 30.32 in1026.8 mb 0.00 in0.0 mm 0.00 in/hr0.0 mm/hr 0.00 in0.0 mm
06:15 AM 28.3°F-2.1°C 22.3°F-5.4°C 78% Calm Calm -- 30.32 in1026.8 mb 0.00 in0.0 mm 0.00 in/hr0.0 mm/hr 0.00 in0.0 mm
06:30 AM 28.3°F-2.1°C 22.6°F-5.2°C 79% Calm Calm 1.0 mph1.6 kmh 30.33 in1027.1 mb 0.00 in0.0 mm 0.00 in/hr0.0 mm/hr 0.00 in0.0 mm
06:45 AM 28.3°F-2.1°C 22.3°F-5.4°C 78% Calm Calm -- 30.33 in1027.1 mb 0.00 in0.0 mm 0.00 in/hr0.0 mm/hr 0.00 in0.0 mm
07:01 AM 28.9°F-1.7°C 22.9°F-5.1°C 78% Calm Calm -- 30.33 in1027.1 mb 0.00 in0.0 mm 0.00 in/hr0.0 mm/hr 0.00 in0.0 mm
07:15 AM 29.3°F-1.5°C 23.0°F-5.0°C 77% Calm Calm -- 30.33 in1027.1 mb 0.00 in0.0 mm 0.00 in/hr0.0 mm/hr 0.00 in0.0 mm
07:30 AM 29.0°F-1.7°C 23.0°F-5.0°C 78% Calm Calm -- 30.33 in1027.1 mb 0.00 in0.0 mm 0.00 in/hr0.0 mm/hr 0.00 in0.0 mm
07:45 AM 28.8°F-1.8°C 22.8°F-5.1°C 78% Calm Calm -- 30.32 in1026.8 mb 0.00 in0.0 mm 0.00 in/hr0.0 mm/hr 0.00 in0.0 mm
08:01 AM 28.8°F-1.8°C 23.1°F-4.9°C 79% Calm Calm -- 30.32 in1026.8 mb 0.00 in0.0 mm 0.00 in/hr0.0 mm/hr 0.00 in0.0 mm
08:15 AM 27.8°F-2.3°C 22.7°F-5.2°C 81% 1.0 mph WNW1.6 kmh WNW 2.0 mph3.2 kmh 30.32 in1026.8 mb 0.00 in0.0 mm 0.00 in/hr0.0 mm/hr 0.00 in0.0 mm
08:30 AM 27.0°F-2.8°C 22.5°F-5.3°C 83% 2.0 mph WNW3.2 kmh WNW 3.0 mph4.8 kmh 30.33 in1027.1 mb 0.00 in0.0 mm 0.00 in/hr0.0 mm/hr 0.00 in0.0 mm
08:45 AM 26.9°F-2.8°C 22.7°F-5.2°C 84% 1.0 mph NW1.6 kmh NW 2.0 mph3.2 kmh 30.34 in1027.4 mb 0.00 in0.0 mm 0.00 in/hr0.0 mm/hr 0.00 in0.0 mm
09:01 AM 28.2°F-2.1°C 23.1°F-4.9°C 81% Calm Calm 2.0 mph3.2 kmh 30.35 in1027.8 mb 0.00 in0.0 mm 0.00 in/hr0.0 mm/hr 0.00 in0.0 mm
09:15 AM 29.5°F-1.4°C 23.8°F-4.6°C 79% Calm Calm 1.0 mph1.6 kmh 30.35 in1027.8 mb 0.00 in0.0 mm 0.00 in/hr0.0 mm/hr 0.00 in0.0 mm
09:30 AM 28.9°F-1.7°C 22.9°F-5.1°C 78% 1.0 mph NW1.6 kmh NW 1.0 mph1.6 kmh 30.36 in1028.1 mb 0.00 in0.0 mm 0.00 in/hr0.0 mm/hr 0.00 in0.0 mm
09:45 AM 29.0°F-1.7°C 23.3°F-4.8°C 79% 2.0 mph WSW3.2 kmh WSW 3.0 mph4.8 kmh 30.36 in1028.1 mb 0.00 in0.0 mm 0.00 in/hr0.0 mm/hr 0.00 in0.0 mm
10:01 AM 29.2°F-1.6°C 23.8°F-4.6°C 80% 2.0 mph S3.2 kmh S 4.0 mph6.4 kmh 30.36 in1028.1 mb 0.00 in0.0 mm 0.00 in/hr0.0 mm/hr 0.00 in0.0 mm
10:15 AM 29.4°F-1.4°C 24.3°F-4.3°C 81% 3.0 mph SSW4.8 kmh SSW 4.0 mph6.4 kmh 30.36 in1028.1 mb 0.00 in0.0 mm 0.00 in/hr0.0 mm/hr 0.00 in0.0 mm
10:30 AM 29.8°F-1.2°C 24.1°F-4.4°C 79% 4.0 mph S6.4 kmh S 5.0 mph8.0 kmh 30.36 in1028.1 mb 0.00 in0.0 mm 0.00 in/hr0.0 mm/hr 0.00 in0.0 mm
10:45 AM 30.0°F-1.1°C 23.7°F-4.6°C 77% 4.0 mph SSW6.4 kmh SSW 5.0 mph8.0 kmh 30.36 in1028.1 mb 0.00 in0.0 mm 0.00 in/hr0.0 mm/hr 0.00 in0.0 mm
11:01 AM 29.8°F-1.2°C 23.5°F-4.7°C 77% 3.0 mph S4.8 kmh S 6.0 mph9.7 kmh 30.36 in1028.1 mb 0.00 in0.0 mm 0.00 in/hr0.0 mm/hr 0.00 in0.0 mm
11:15 AM 30.0°F-1.1°C 23.1°F-4.9°C 75% 4.0 mph SW6.4 kmh SW 6.0 mph9.7 kmh 30.36 in1028.1 mb 0.00 in0.0 mm 0.00 in/hr0.0 mm/hr 0.00 in0.0 mm
11:30 AM 30.3°F-0.9°C 22.4°F-5.3°C 72% 8.0 mph SW12.9 kmh SW 9.0 mph14.5 kmh 30.36 in1028.1 mb 0.00 in0.0 mm 0.00 in/hr0.0 mm/hr 0.00 in0.0 mm
11:45 AM 30.5°F-0.8°C 21.9°F-5.6°C 70% 5.0 mph WSW8.0 kmh WSW 9.0 mph14.5 kmh 30.36 in1028.1 mb 0.00 in0.0 mm 0.00 in/hr0.0 mm/hr 0.00 in0.0 mm
12:01 PM 30.9°F-0.6°C 22.3°F-5.4°C 70% 7.0 mph SSW11.3 kmh SSW 9.0 mph14.5 kmh 30.34 in1027.4 mb 0.00 in0.0 mm 0.00 in/hr0.0 mm/hr 0.00 in0.0 mm
12:15 PM 31.1°F-0.5°C 23.1°F-4.9°C 72% 6.0 mph SSW9.7 kmh SSW 8.0 mph12.9 kmh 30.33 in1027.1 mb 0.00 in0.0 mm 0.00 in/hr0.0 mm/hr 0.00 in0.0 mm
12:31 PM 31.4°F-0.3°C 23.8°F-4.6°C 73% 7.0 mph SW11.3 kmh SW 9.0 mph14.5 kmh 30.34 in1027.4 mb 0.00 in0.0 mm 0.00 in/hr0.0 mm/hr 0.00 in0.0 mm
12:45 PM 31.8°F-0.1°C 23.2°F-4.9°C 70% 8.0 mph SSW12.9 kmh SSW 9.0 mph14.5 kmh 30.33 in1027.1 mb 0.00 in0.0 mm 0.00 in/hr0.0 mm/hr 0.00 in0.0 mm
01:01 PM 32.3°F0.2°C 24.3°F-4.3°C 72% 7.0 mph SSW11.3 kmh SSW 8.0 mph12.9 kmh 30.32 in1026.8 mb 0.00 in0.0 mm 0.00 in/hr0.0 mm/hr 0.00 in0.0 mm
01:15 PM 32.3°F0.2°C 25.0°F-3.9°C 74% 10.0 mph S16.1 kmh S 10.0 mph16.1 kmh 30.31 in1026.4 mb 0.00 in0.0 mm 0.00 in/hr0.0 mm/hr 0.00 in0.0 mm
01:30 PM 32.0°F0.0°C 25.0°F-3.9°C 75% 10.0 mph S16.1 kmh S 14.0 mph22.5 kmh 30.30 in1026.1 mb 0.00 in0.0 mm 0.00 in/hr0.0 mm/hr 0.00 in0.0 mm
01:45 PM 32.0°F0.0°C 25.6°F-3.6°C 77% 14.0 mph S22.5 kmh S 16.0 mph25.7 kmh 30.30 in1026.1 mb 0.00 in0.0 mm 0.00 in/hr0.0 mm/hr 0.00 in0.0 mm
02:01 PM 31.9°F-0.1°C 25.5°F-3.6°C 77% 8.0 mph S12.9 kmh S 17.0 mph27.4 kmh 30.30 in1026.1 mb 0.00 in0.0 mm 0.00 in/hr0.0 mm/hr 0.00 in0.0 mm
02:15 PM 31.7°F-0.2°C 26.3°F-3.2°C 80% 11.0 mph S17.7 kmh S 18.0 mph29.0 kmh 30.29 in1025.7 mb 0.00 in0.0 mm 0.00 in/hr0.0 mm/hr 0.00 in0.0 mm
02:30 PM 31.9°F-0.1°C 26.4°F-3.1°C 80% 8.0 mph S12.9 kmh S 17.0 mph27.4 kmh 30.29 in1025.7 mb 0.00 in0.0 mm 0.00 in/hr0.0 mm/hr 0.00 in0.0 mm
02:45 PM 32.0°F0.0°C 27.1°F-2.7°C 82% 6.0 mph S9.7 kmh S 16.0 mph25.7 kmh 30.29 in1025.7 mb 0.00 in0.0 mm 0.00 in/hr0.0 mm/hr 0.00 in0.0 mm
03:01 PM 32.0°F0.0°C 27.1°F-2.7°C 82% 13.0 mph S20.9 kmh S 16.0 mph25.7 kmh 30.29 in1025.7 mb 0.00 in0.0 mm 0.00 in/hr0.0 mm/hr 0.00 in0.0 mm
03:16 PM 32.7°F0.4°C 26.3°F-3.2°C 77% 9.0 mph S14.5 kmh S 14.0 mph22.5 kmh 30.29 in1025.7 mb 0.00 in0.0 mm 0.00 in/hr0.0 mm/hr 0.00 in0.0 mm
03:30 PM 32.6°F0.3°C 27.7°F-2.4°C 82% 10.0 mph S16.1 kmh S 13.0 mph20.9 kmh 30.29 in1025.7 mb 0.00 in0.0 mm 0.00 in/hr0.0 mm/hr 0.00 in0.0 mm
03:45 PM 32.6°F0.3°C 27.7°F-2.4°C 82% 12.0 mph S19.3 kmh S 17.0 mph27.4 kmh 30.29 in1025.7 mb 0.00 in0.0 mm 0.00 in/hr0.0 mm/hr 0.00 in0.0 mm
04:01 PM 32.6°F0.3°C 28.3°F-2.1°C 84% 11.0 mph S17.7 kmh S 14.0 mph22.5 kmh 30.29 in1025.7 mb 0.00 in0.0 mm 0.00 in/hr0.0 mm/hr 0.00 in0.0 mm
04:15 PM 33.1°F0.6°C 28.5°F-1.9°C 83% 13.0 mph S20.9 kmh S 13.0 mph20.9 kmh 30.29 in1025.7 mb 0.00 in0.0 mm 0.00 in/hr0.0 mm/hr 0.00 in0.0 mm
04:31 PM 33.5°F0.8°C 27.7°F-2.4°C 79% 9.0 mph SSW14.5 kmh SSW 12.0 mph19.3 kmh 30.28 in1025.4 mb 0.00 in0.0 mm 0.00 in/hr0.0 mm/hr 0.00 in0.0 mm
04:45 PM 33.5°F0.8°C 27.1°F-2.7°C 77% 11.0 mph SSW17.7 kmh SSW 14.0 mph22.5 kmh 30.29 in1025.7 mb 0.00 in0.0 mm 0.00 in/hr0.0 mm/hr 0.00 in0.0 mm
05:01 PM 33.6°F0.9°C 27.8°F-2.3°C 79% 7.0 mph SSW11.3 kmh SSW 14.0 mph22.5 kmh 30.29 in1025.7 mb 0.00 in0.0 mm 0.00 in/hr0.0 mm/hr 0.00 in0.0 mm
05:15 PM 33.6°F0.9°C 27.8°F-2.3°C 79% 7.0 mph S11.3 kmh S 12.0 mph19.3 kmh 30.29 in1025.7 mb 0.00 in0.0 mm 0.00 in/hr0.0 mm/hr 0.00 in0.0 mm
05:30 PM 33.6°F0.9°C 27.8°F-2.3°C 79% 8.0 mph S12.9 kmh S 13.0 mph20.9 kmh 30.28 in1025.4 mb 0.00 in0.0 mm 0.00 in/hr0.0 mm/hr 0.00 in0.0 mm
05:45 PM 33.6°F0.9°C 28.4°F-2.0°C 81% 8.0 mph SSW12.9 kmh SSW 11.0 mph17.7 kmh 30.28 in1025.4 mb 0.00 in0.0 mm 0.00 in/hr0.0 mm/hr 0.00 in0.0 mm
06:01 PM 33.8°F1.0°C 28.3°F-2.1°C 80% 9.0 mph SW14.5 kmh SW 12.0 mph19.3 kmh 30.28 in1025.4 mb 0.00 in0.0 mm 0.00 in/hr0.0 mm/hr 0.00 in0.0 mm
06:15 PM 34.0°F1.1°C 28.8°F-1.8°C 81% 7.0 mph SW11.3 kmh SW 13.0 mph20.9 kmh 30.28 in1025.4 mb 0.00 in0.0 mm 0.00 in/hr0.0 mm/hr 0.00 in0.0 mm
06:31 PM 33.9°F1.1°C 29.0°F-1.7°C 82% 9.0 mph SSW14.5 kmh SSW 9.0 mph14.5 kmh 30.28 in1025.4 mb 0.00 in0.0 mm 0.00 in/hr0.0 mm/hr 0.00 in0.0 mm
06:45 PM 33.8°F1.0°C 29.2°F-1.6°C 83% 8.0 mph SSW12.9 kmh SSW 11.0 mph17.7 kmh 30.28 in1025.4 mb 0.00 in0.0 mm 0.00 in/hr0.0 mm/hr 0.00 in0.0 mm
07:01 PM 33.8°F1.0°C 28.9°F-1.7°C 82% 6.0 mph SW9.7 kmh SW 11.0 mph17.7 kmh 30.28 in1025.4 mb 0.00 in0.0 mm 0.00 in/hr0.0 mm/hr 0.00 in0.0 mm
07:15 PM 33.9°F1.1°C 29.3°F-1.5°C 83% 9.0 mph SW14.5 kmh SW 11.0 mph17.7 kmh 30.28 in1025.4 mb 0.00 in0.0 mm 0.00 in/hr0.0 mm/hr 0.00 in0.0 mm
07:31 PM 33.9°F1.1°C 29.0°F-1.7°C 82% 9.0 mph SW14.5 kmh SW 13.0 mph20.9 kmh 30.28 in1025.4 mb 0.00 in0.0 mm 0.00 in/hr0.0 mm/hr 0.00 in0.0 mm
07:45 PM 33.9°F1.1°C 28.7°F-1.8°C 81% 10.0 mph SW16.1 kmh SW 13.0 mph20.9 kmh 30.28 in1025.4 mb 0.00 in0.0 mm 0.00 in/hr0.0 mm/hr 0.00 in0.0 mm
08:01 PM 33.7°F0.9°C 29.1°F-1.6°C 83% 8.0 mph SW12.9 kmh SW 12.0 mph19.3 kmh 30.28 in1025.4 mb 0.00 in0.0 mm 0.00 in/hr0.0 mm/hr 0.00 in0.0 mm
08:15 PM 33.5°F0.8°C 28.9°F-1.7°C 83% 7.0 mph WSW11.3 kmh WSW 10.0 mph16.1 kmh 30.28 in1025.4 mb 0.00 in0.0 mm 0.00 in/hr0.0 mm/hr 0.00 in0.0 mm
08:30 PM 33.5°F0.8°C 29.2°F-1.6°C 84% 6.0 mph SW9.7 kmh SW 10.0 mph16.1 kmh 30.29 in1025.7 mb 0.00 in0.0 mm 0.00 in/hr0.0 mm/hr 0.00 in0.0 mm
08:45 PM 33.5°F0.8°C 28.9°F-1.7°C 83% 5.0 mph SW8.0 kmh SW 11.0 mph17.7 kmh 30.29 in1025.7 mb 0.00 in0.0 mm 0.00 in/hr0.0 mm/hr 0.00 in0.0 mm
09:01 PM 33.5°F0.8°C 28.9°F-1.7°C 83% 9.0 mph SW14.5 kmh SW 14.0 mph22.5 kmh 30.28 in1025.4 mb 0.00 in0.0 mm 0.00 in/hr0.0 mm/hr 0.00 in0.0 mm
09:15 PM 33.4°F0.8°C 28.8°F-1.8°C 83% 8.0 mph SW12.9 kmh SW 12.0 mph19.3 kmh 30.28 in1025.4 mb 0.00 in0.0 mm 0.00 in/hr0.0 mm/hr 0.00 in0.0 mm
09:30 PM 33.4°F0.8°C 28.5°F-1.9°C 82% 9.0 mph WSW14.5 kmh WSW 12.0 mph19.3 kmh 30.28 in1025.4 mb 0.00 in0.0 mm 0.00 in/hr0.0 mm/hr 0.00 in0.0 mm
09:45 PM 33.5°F0.8°C 28.3°F-2.1°C 81% 10.0 mph WSW16.1 kmh WSW 15.0 mph24.1 kmh 30.28 in1025.4 mb 0.00 in0.0 mm 0.00 in/hr0.0 mm/hr 0.00 in0.0 mm
10:01 PM 33.4°F0.8°C 28.2°F-2.1°C 81% 8.0 mph WSW12.9 kmh WSW 12.0 mph19.3 kmh 30.28 in1025.4 mb 0.00 in0.0 mm 0.00 in/hr0.0 mm/hr 0.00 in0.0 mm
10:15 PM 33.2°F0.7°C 28.6°F-1.9°C 83% 8.0 mph WSW12.9 kmh WSW 10.0 mph16.1 kmh 30.28 in1025.4 mb 0.00 in0.0 mm 0.00 in/hr0.0 mm/hr 0.00 in0.0 mm
10:30 PM 33.0°F0.6°C 28.4°F-2.0°C 83% 8.0 mph WSW12.9 kmh WSW 9.0 mph14.5 kmh 30.28 in1025.4 mb 0.00 in0.0 mm 0.00 in/hr0.0 mm/hr 0.00 in0.0 mm
10:45 PM 32.7°F0.4°C 28.1°F-2.2°C 83% 6.0 mph WSW9.7 kmh WSW 8.0 mph12.9 kmh 30.28 in1025.4 mb 0.00 in0.0 mm 0.00 in/hr0.0 mm/hr 0.00 in0.0 mm
11:01 PM 32.2°F0.1°C 27.9°F-2.3°C 84% 5.0 mph WSW8.0 kmh WSW 8.0 mph12.9 kmh 30.27 in1025.1 mb 0.00 in0.0 mm 0.00 in/hr0.0 mm/hr 0.00 in0.0 mm
11:15 PM 32.2°F0.1°C 28.2°F-2.1°C 85% 6.0 mph WSW9.7 kmh WSW 8.0 mph12.9 kmh 30.27 in1025.1 mb 0.00 in0.0 mm 0.00 in/hr0.0 mm/hr 0.00 in0.0 mm
11:30 PM 32.1°F0.1°C 28.1°F-2.2°C 85% 6.0 mph WSW9.7 kmh WSW 9.0 mph14.5 kmh 30.27 in1025.1 mb 0.00 in0.0 mm 0.00 in/hr0.0 mm/hr 0.00 in0.0 mm
11:45 PM 31.8°F-0.1°C 28.1°F-2.2°C 86% 6.0 mph WSW9.7 kmh WSW 8.0 mph12.9 kmh 30.27 in1025.1 mb 0.00 in0.0 mm 0.00 in/hr0.0 mm/hr 0.00 in0.0 mm